Time;durP1;ratioP1;P1;durP2;ratioP2;P2;SDS_P1;SDS_P2;PMS_P1;PMS_P2;Temp;Humidity;BMP_temperature;BMP_pressure;BME280_temperature;BME280_humidity;BME280_pressure;Samples;Min_cycle;Max_cycle;Signal;HPM_P1;HPM_P2
2022/02/28 00:01:30;;;;;;;3.97;2.63;;;20.30;52.60;;;;;;4972157;28;20269;-57
2022/02/28 00:04:01;;;;;;;4.88;2.90;;;20.30;52.60;;;;;;4972135;28;20202;-56
2022/02/28 00:06:32;;;;;;;3.78;2.45;;;20.30;52.50;;;;;;4971714;28;20281;-57
2022/02/28 00:09:04;;;;;;;4.53;2.35;;;20.40;52.50;;;;;;4971752;28;20214;-52
2022/02/28 00:11:35;;;;;;;5.63;3.03;;;20.40;52.60;;;;;;4971554;28;20214;-56
2022/02/28 00:14:05;;;;;;;5.22;2.70;;;20.50;52.60;;;;;;4971874;28;20225;-56
2022/02/28 00:16:36;;;;;;;5.10;2.58;;;20.50;52.60;;;;;;4983973;23;20226;-56
2022/02/28 00:19:08;;;;;;;6.28;2.78;;;20.50;52.40;;;;;;4971788;28;20198;-56
2022/02/28 00:21:38;;;;;;;4.03;2.33;;;20.50;52.40;;;;;;4970925;28;20214;-56
2022/02/28 00:24:11;;;;;;;6.35;2.58;;;20.50;52.40;;;;;;4971635;28;20194;-55
2022/02/28 00:26:41;;;;;;;3.58;2.47;;;20.60;52.40;;;;;;4971530;28;20198;-55
2022/02/28 00:29:12;;;;;;;3.75;2.65;;;20.60;52.30;;;;;;4970989;28;20198;-56
2022/02/28 00:31:43;;;;;;;4.35;2.53;;;20.60;52.30;;;;;;4971513;28;20221;-56
2022/02/28 00:34:13;;;;;;;4.30;2.00;;;20.60;52.30;;;;;;4971338;28;20280;-55
2022/02/28 00:36:44;;;;;;;4.10;2.60;;;20.70;52.40;;;;;;4970455;28;20198;-56
2022/02/28 00:39:16;;;;;;;5.10;2.47;;;20.70;52.40;;;;;;4970821;28;20249;-56
2022/02/28 00:41:47;;;;;;;3.88;2.45;;;20.70;52.30;;;;;;4970742;28;20218;-55
2022/02/28 00:44:18;;;;;;;4.63;2.53;;;20.80;52.30;;;;;;4970382;28;20257;-56
2022/02/28 00:46:48;;;;;;;4.70;2.47;;;20.80;52.30;;;;;;4971470;28;20194;-54
2022/02/28 00:49:19;;;;;;;3.70;2.22;;;20.80;52.20;;;;;;4971309;28;20194;-56
2022/02/28 00:51:49;;;;;;;4.05;2.50;;;20.90;52.20;;;;;;4970877;28;20230;-55
2022/02/28 00:54:22;;;;;;;3.22;2.10;;;20.90;52.20;;;;;;4970594;28;20281;-54
2022/02/28 00:56:52;;;;;;;3.72;2.08;;;20.90;52.20;;;;;;4970924;28;20651;-55
2022/02/28 00:59:23;;;;;;;3.50;1.90;;;20.90;52.20;;;;;;4970082;28;20257;-56
2022/02/28 01:01:54;;;;;;;3.45;2.00;;;21.00;52.30;;;;;;4970815;28;20597;-54
2022/02/28 01:04:25;;;;;;;4.63;2.10;;;21.00;52.10;;;;;;4971214;28;20261;-56
2022/02/28 01:06:55;;;;;;;3.33;2.38;;;21.00;52.10;;;;;;4970423;28;20198;-56
2022/02/28 01:09:28;;;;;;;3.38;2.10;;;21.00;52.00;;;;;;4970492;28;20257;-55
2022/02/28 01:11:59;;;;;;;2.88;1.98;;;21.10;52.00;;;;;;4970353;28;20214;-56
2022/02/28 01:14:30;;;;;;;5.68;2.33;;;21.10;52.00;;;;;;4970376;28;20230;-56
2022/02/28 01:17:00;;;;;;;4.68;2.30;;;21.10;52.00;;;;;;4970107;28;20197;-56
2022/02/28 01:19:31;;;;;;;4.20;2.22;;;21.10;51.80;;;;;;4970447;28;20206;-55
2022/02/28 01:22:02;;;;;;;3.53;2.03;;;21.20;51.90;;;;;;4970032;28;20230;-54
2022/02/28 01:24:34;;;;;;;4.70;1.83;;;21.20;51.90;;;;;;4969692;28;20253;-56
2022/02/28 01:27:05;;;;;;;5.03;2.13;;;21.20;51.80;;;;;;4970674;28;20194;-55
2022/02/28 01:29:36;;;;;;;3.47;2.00;;;21.20;51.80;;;;;;4971679;28;20198;-55
2022/02/28 01:32:07;;;;;;;3.90;2.00;;;21.30;51.70;;;;;;4971680;28;20558;-55
2022/02/28 01:34:38;;;;;;;3.58;1.98;;;21.30;51.70;;;;;;4970282;28;20244;-56
2022/02/28 01:37:08;;;;;;;2.38;1.92;;;21.30;51.60;;;;;;4970128;28;20786;-54
2022/02/28 01:39:44;;;;;;;3.00;1.90;;;21.30;51.50;;;;;;4969741;28;20198;-55
2022/02/28 01:42:15;;;;;;;4.68;2.20;;;21.40;51.50;;;;;;4970068;28;20214;-55
2022/02/28 01:44:46;;;;;;;3.47;2.10;;;21.40;51.40;;;;;;4969351;28;20481;-56
2022/02/28 01:47:17;;;;;;;3.33;1.90;;;21.40;51.50;;;;;;4970552;28;20232;-56
2022/02/28 01:49:47;;;;;;;4.18;2.20;;;21.40;51.50;;;;;;4969719;28;20198;-56
2022/02/28 01:52:18;;;;;;;4.40;2.00;;;21.50;51.50;;;;;;4978353;28;20229;-56
2022/02/28 01:54:50;;;;;;;4.90;2.10;;;21.50;51.40;;;;;;4971270;28;20277;-56
2022/02/28 01:57:21;;;;;;;5.97;2.67;;;21.50;51.50;;;;;;4971669;28;20729;-55
2022/02/28 01:59:52;;;;;;;4.35;2.28;;;21.50;51.40;;;;;;4971168;28;20253;-56
2022/02/28 02:02:22;;;;;;;4.28;2.10;;;21.50;51.30;;;;;;4967644;28;20236;-56
2022/02/28 02:04:53;;;;;;;3.63;2.08;;;21.60;51.30;;;;;;4969949;28;20248;-54
2022/02/28 02:07:24;;;;;;;5.00;2.00;;;21.60;51.30;;;;;;4968930;28;20206;-56
2022/02/28 02:09:57;;;;;;;3.72;2.00;;;21.60;51.20;;;;;;4969806;28;20206;-55
2022/02/28 02:12:29;;;;;;;4.00;1.95;;;21.60;51.20;;;;;;4969491;28;20226;-57
2022/02/28 02:15:00;;;;;;;4.45;1.90;;;21.70;51.10;;;;;;4969240;28;20292;-56
2022/02/28 02:17:32;;;;;;;4.90;2.55;;;21.70;50.90;;;;;;4982793;23;20228;-57
2022/02/28 02:20:06;;;;;;;4.88;2.13;;;21.70;50.80;;;;;;4969536;28;20242;-57
2022/02/28 02:22:36;;;;;;;4.00;2.15;;;21.70;50.70;;;;;;4969918;28;20613;-58
2022/02/28 02:25:07;;;;;;;4.40;1.95;;;21.70;50.60;;;;;;4969447;28;20245;-56
2022/02/28 02:27:38;;;;;;;5.38;2.00;;;21.80;50.60;;;;;;4969525;28;20268;-57
2022/02/28 02:30:09;;;;;;;2.88;1.83;;;21.80;50.50;;;;;;4969107;28;20206;-56
2022/02/28 02:32:40;;;;;;;3.25;1.95;;;21.80;50.40;;;;;;4969659;28;20225;-56
2022/02/28 02:35:13;;;;;;;3.15;1.60;;;21.90;50.40;;;;;;4969019;28;20233;-56
2022/02/28 02:37:44;;;;;;;4.15;2.05;;;21.90;50.30;;;;;;4969338;28;20713;-59
2022/02/28 02:40:15;;;;;;;6.18;1.90;;;21.90;50.20;;;;;;4968777;28;20667;-56
2022/02/28 02:42:45;;;;;;;3.47;1.90;;;21.90;50.20;;;;;;4969282;28;20562;-58
2022/02/28 02:45:16;;;;;;;3.53;2.03;;;21.90;50.30;;;;;;4969054;28;20202;-53
2022/02/28 02:47:47;;;;;;;5.95;1.77;;;22.00;50.20;;;;;;4969428;28;20202;-56
2022/02/28 02:50:19;;;;;;;4.20;2.25;;;22.00;50.10;;;;;;4969414;28;20714;-55
2022/02/28 02:52:50;;;;;;;3.55;1.95;;;22.00;50.00;;;;;;4971546;28;20745;-57
2022/02/28 02:55:21;;;;;;;3.40;1.60;;;22.00;50.00;;;;;;4972981;28;20225;-57
2022/02/28 02:57:51;;;;;;;3.22;1.90;;;22.10;50.00;;;;;;4973141;28;20199;-57
2022/02/28 03:00:22;;;;;;;2.67;1.98;;;22.10;49.90;;;;;;4973574;28;20198;-55
2022/02/28 03:02:53;;;;;;;4.30;2.20;;;22.10;49.90;;;;;;4972871;28;20198;-54
2022/02/28 03:05:26;;;;;;;3.03;1.88;;;22.20;49.80;;;;;;4972998;28;20214;-55
2022/02/28 03:07:56;;;;;;;3.92;1.80;;;22.10;49.50;;;;;;4972106;28;20206;-56
2022/02/28 03:10:29;;;;;;;4.43;1.75;;;22.20;49.50;;;;;;4973149;28;20202;-57
2022/02/28 03:13:00;;;;;;;4.20;1.98;;;22.20;49.40;;;;;;4972682;28;20202;-57
2022/02/28 03:15:30;;;;;;;4.28;1.80;;;22.20;49.40;;;;;;4972160;28;20305;-58
2022/02/28 03:18:01;;;;;;;4.22;2.15;;;22.30;49.30;;;;;;4985664;23;20229;-56
2022/02/28 03:20:34;;;;;;;3.22;1.88;;;22.30;49.30;;;;;;4972524;28;20721;-56
2022/02/28 03:23:04;;;;;;;3.45;1.60;;;22.30;49.20;;;;;;4972491;28;20198;-56
2022/02/28 03:25:35;;;;;;;4.93;1.83;;;22.30;49.20;;;;;;4972395;28;20194;-55
2022/02/28 03:28:06;;;;;;;2.40;1.60;;;22.30;49.20;;;;;;4972858;28;20654;-54
2022/02/28 03:30:36;;;;;;;4.68;1.90;;;22.40;49.30;;;;;;4972032;28;20214;-56
2022/02/28 03:33:07;;;;;;;2.90;1.70;;;22.40;49.20;;;;;;4972523;28;20198;-56
2022/02/28 03:35:40;;;;;;;3.55;1.80;;;22.40;49.20;;;;;;4972168;28;20702;-53
2022/02/28 03:38:10;;;;;;;4.05;1.75;;;22.40;49.20;;;;;;4971947;28;20706;-53
2022/02/28 03:40:41;;;;;;;2.20;1.40;;;22.40;49.10;;;;;;4972070;28;20284;-48
2022/02/28 03:43:11;;;;;;;2.50;1.25;;;22.50;49.20;;;;;;4971972;28;20198;-51
2022/02/28 03:45:42;;;;;;;2.42;1.60;;;22.50;49.10;;;;;;4972128;28;20257;-51
2022/02/28 03:48:13;;;;;;;3.40;1.42;;;22.50;49.10;;;;;;4971869;28;20249;-55
2022/02/28 03:50:46;;;;;;;2.30;1.35;;;22.50;49.10;;;;;;4972017;28;20221;-57
2022/02/28 03:53:16;;;;;;;3.53;1.65;;;22.60;49.20;;;;;;4971805;28;20202;-55
2022/02/28 03:55:47;;;;;;;3.60;1.60;;;22.60;49.00;;;;;;4971933;28;20305;-56
2022/02/28 03:58:18;;;;;;;3.20;1.55;;;22.60;48.90;;;;;;4972120;28;20198;-57
2022/02/28 04:00:48;;;;;;;3.28;1.50;;;22.60;48.90;;;;;;4972768;28;20214;-56
2022/02/28 04:03:19;;;;;;;3.80;1.40;;;22.70;49.10;;;;;;4972501;28;20206;-55
2022/02/28 04:05:51;;;;;;;3.03;1.42;;;22.70;49.00;;;;;;4972876;28;20205;-53
2022/02/28 04:08:22;;;;;;;3.78;1.42;;;22.70;48.90;;;;;;4971781;28;20199;-55
2022/02/28 04:10:52;;;;;;;4.22;1.70;;;22.70;48.90;;;;;;4971537;28;20218;-53
2022/02/28 04:13:23;;;;;;;3.40;1.55;;;22.80;48.80;;;;;;4971626;28;20252;-55
2022/02/28 04:15:57;;;;;;;3.25;1.50;;;22.80;48.70;;;;;;4971931;28;20307;-54
2022/02/28 04:18:29;;;;;;;3.00;1.50;;;22.80;48.70;;;;;;4971174;28;20549;-53
2022/02/28 04:21:01;;;;;;;2.72;1.67;;;22.80;48.60;;;;;;4972153;28;20238;-54
2022/02/28 04:23:32;;;;;;;2.70;1.42;;;22.80;48.50;;;;;;4972146;28;20257;-55
2022/02/28 04:26:04;;;;;;;2.55;1.60;;;22.80;48.40;;;;;;4973072;28;20670;-50
2022/02/28 04:28:34;;;;;;;3.65;1.60;;;22.80;48.40;;;;;;4973240;28;20712;-50
2022/02/28 04:31:05;;;;;;;3.75;1.83;;;22.80;48.50;;;;;;4972553;28;20697;-51
2022/02/28 04:33:36;;;;;;;4.60;1.40;;;22.80;48.50;;;;;;4972253;28;20245;-51
2022/02/28 04:36:09;;;;;;;1.98;1.35;;;22.80;48.50;;;;;;4967452;28;20240;-47
2022/02/28 04:38:39;;;;;;;4.25;1.60;;;22.90;48.50;;;;;;4971311;28;20249;-53
2022/02/28 04:41:10;;;;;;;3.65;1.70;;;22.90;48.50;;;;;;4971478;28;20218;-55
2022/02/28 04:43:40;;;;;;;6.68;1.58;;;22.80;47.80;;;;;;4970753;28;20191;-52
2022/02/28 04:46:11;;;;;;;4.20;1.58;;;22.90;47.70;;;;;;4970418;28;20198;-55
2022/02/28 04:48:42;;;;;;;3.88;1.50;;;22.80;47.60;;;;;;4971612;28;20209;-54
2022/02/28 04:51:14;;;;;;;4.88;1.40;;;22.90;47.60;;;;;;4971360;28;20286;-48
2022/02/28 04:53:45;;;;;;;2.35;1.40;;;22.80;47.50;;;;;;4970481;28;20206;-54
2022/02/28 04:56:15;;;;;;;2.88;1.10;;;22.90;47.60;;;;;;4970582;28;21465;-48
2022/02/28 04:58:46;;;;;;;3.47;1.23;;;22.90;47.50;;;;;;4970597;28;20257;-52
2022/02/28 05:01:17;;;;;;;2.95;1.38;;;22.90;47.50;;;;;;4970258;28;20273;-51
2022/02/28 05:03:47;;;;;;;4.22;1.40;;;22.90;47.50;;;;;;4970702;28;20284;-53
2022/02/28 05:06:20;;;;;;;4.32;1.50;;;22.90;47.40;;;;;;4970970;28;20265;-56
2022/02/28 05:08:50;;;;;;;3.35;1.63;;;22.90;47.50;;;;;;4971252;28;20206;-57
2022/02/28 05:11:21;;;;;;;4.47;1.50;;;22.90;47.30;;;;;;4969726;28;20225;-54
2022/02/28 05:13:52;;;;;;;2.53;1.42;;;22.90;47.40;;;;;;4969806;28;20249;-54
2022/02/28 05:16:22;;;;;;;3.50;1.50;;;22.90;47.40;;;;;;4982866;23;20205;-53
2022/02/28 05:18:53;;;;;;;2.58;1.48;;;22.90;47.40;;;;;;4970067;28;20198;-53
2022/02/28 05:21:25;;;;;;;2.72;1.30;;;22.90;47.40;;;;;;4969768;28;20254;-55
2022/02/28 05:23:56;;;;;;;3.47;1.30;;;22.90;47.40;;;;;;4969799;28;20736;-55
2022/02/28 05:26:26;;;;;;;3.80;1.38;;;22.90;47.40;;;;;;4969750;28;20257;-56
2022/02/28 05:28:57;;;;;;;3.40;1.50;;;22.90;47.40;;;;;;4970639;28;20199;-53
2022/02/28 05:31:28;;;;;;;2.17;1.30;;;22.90;47.40;;;;;;4970635;28;20752;-56
2022/02/28 05:33:58;;;;;;;3.67;1.73;;;22.90;47.20;;;;;;4969706;28;20198;-56
2022/02/28 05:36:31;;;;;;;3.58;1.27;;;22.90;47.20;;;;;;4969761;28;20229;-54
2022/02/28 05:39:01;;;;;;;3.80;1.50;;;22.90;47.20;;;;;;4969441;28;20285;-56
2022/02/28 05:41:32;;;;;;;3.75;1.20;;;22.90;47.10;;;;;;4969958;28;20285;-56
2022/02/28 05:44:02;;;;;;;3.42;1.58;;;22.90;47.10;;;;;;4970467;28;20194;-58
2022/02/28 05:46:33;;;;;;;2.53;1.15;;;22.90;47.10;;;;;;4968931;28;20198;-56
2022/02/28 05:49:04;;;;;;;2.00;1.23;;;22.90;47.10;;;;;;4969473;28;20615;-57
2022/02/28 05:51:37;;;;;;;4.38;1.23;;;22.90;47.20;;;;;;4969706;28;20713;-56
2022/02/28 05:54:08;;;;;;;1.90;1.33;;;22.90;47.30;;;;;;4969407;28;20617;-56
2022/02/28 05:56:38;;;;;;;2.83;1.20;;;22.90;47.30;;;;;;4970159;28;20222;-56
2022/02/28 05:59:09;;;;;;;3.70;1.45;;;22.90;47.20;;;;;;4969698;28;20261;-56
2022/02/28 06:01:40;;;;;;;3.03;1.50;;;22.90;47.20;;;;;;4969991;28;20805;-57
2022/02/28 06:04:10;;;;;;;2.35;1.27;;;22.80;47.10;;;;;;4970446;28;20198;-57
2022/02/28 06:06:43;;;;;;;3.38;1.20;;;22.80;47.20;;;;;;4969796;28;20272;-57
2022/02/28 06:09:13;;;;;;;3.58;1.20;;;22.80;47.20;;;;;;4970400;28;20202;-56
2022/02/28 06:11:44;;;;;;;3.30;1.30;;;22.80;47.30;;;;;;4969263;28;20214;-55
2022/02/28 06:14:15;;;;;;;2.65;1.42;;;22.80;47.40;;;;;;4970366;28;20198;-56
2022/02/28 06:16:45;;;;;;;2.75;1.33;;;22.80;47.40;;;;;;4983072;23;20230;-51
2022/02/28 06:19:16;;;;;;;3.63;1.17;;;22.80;47.40;;;;;;4969802;28;20776;-55
2022/02/28 06:21:48;;;;;;;2.72;1.35;;;22.80;48.10;;;;;;4969402;28;20214;-55
2022/02/28 06:24:19;;;;;;;2.50;1.10;;;22.70;47.40;;;;;;4971515;28;20194;-57
2022/02/28 06:26:50;;;;;;;2.35;1.30;;;22.70;47.40;;;;;;4974135;28;20206;-55
2022/02/28 06:29:20;;;;;;;3.20;1.63;;;22.70;47.50;;;;;;4973416;28;20198;-55
2022/02/28 06:31:51;;;;;;;3.55;1.60;;;22.70;47.50;;;;;;4973019;28;20288;-54
2022/02/28 06:34:22;;;;;;;2.90;1.42;;;22.70;47.60;;;;;;4973364;28;20198;-54
2022/02/28 06:36:54;;;;;;;2.92;1.27;;;22.70;47.60;;;;;;4973519;28;20888;-55
2022/02/28 06:39:25;;;;;;;3.45;1.40;;;22.60;47.50;;;;;;4972939;28;20198;-55
2022/02/28 06:41:56;;;;;;;3.75;1.60;;;22.60;47.40;;;;;;4973246;28;20555;-55
2022/02/28 06:44:27;;;;;;;2.15;1.17;;;22.60;47.50;;;;;;4974528;28;20574;-56
2022/02/28 06:46:57;;;;;;;2.50;1.08;;;22.60;47.50;;;;;;4974763;28;20616;-56
2022/02/28 06:49:28;;;;;;;3.30;1.20;;;22.50;47.50;;;;;;4974735;28;20201;-54
2022/02/28 06:52:00;;;;;;;2.67;1.23;;;22.50;47.50;;;;;;4974421;28;20285;-55
2022/02/28 06:54:31;;;;;;;3.45;1.27;;;22.50;47.50;;;;;;4974286;28;20257;-56
2022/02/28 06:57:02;;;;;;;3.58;1.27;;;22.50;47.50;;;;;;4974919;28;20226;-56
2022/02/28 06:59:34;;;;;;;3.25;1.23;;;22.50;47.60;;;;;;4974815;28;20658;-56
2022/02/28 07:02:04;;;;;;;2.35;1.33;;;22.50;47.70;;;;;;4974242;28;20697;-56
2022/02/28 07:04:35;;;;;;;1.75;0.90;;;22.40;48.00;;;;;;4974356;28;20206;-56
2022/02/28 07:07:08;;;;;;;4.13;1.05;;;22.40;48.30;;;;;;4974161;28;20202;-56
2022/02/28 07:09:39;;;;;;;2.97;1.30;;;22.40;47.80;;;;;;4973913;28;20202;-56
2022/02/28 07:12:10;;;;;;;2.58;1.05;;;22.40;47.90;;;;;;4973631;28;20268;-56
2022/02/28 07:14:41;;;;;;;3.83;1.55;;;22.40;47.90;;;;;;4970728;28;20194;-56
2022/02/28 07:17:11;;;;;;;4.78;1.15;;;22.40;47.90;;;;;;4974451;28;20222;-55
2022/02/28 07:19:42;;;;;;;2.70;1.00;;;22.40;48.00;;;;;;4974003;28;20272;-57
2022/02/28 07:22:15;;;;;;;2.40;1.42;;;22.30;48.00;;;;;;4973574;28;20226;-56
2022/02/28 07:24:45;;;;;;;3.15;1.10;;;22.30;48.00;;;;;;4973598;28;20228;-53
2022/02/28 07:27:16;;;;;;;2.22;1.05;;;22.30;48.00;;;;;;4974257;28;20209;-56
2022/02/28 07:29:46;;;;;;;5.10;1.30;;;22.30;48.00;;;;;;4974311;28;20206;-43
2022/02/28 07:32:17;;;;;;;9.30;2.00;;;22.30;47.90;;;;;;4973505;28;20218;-44
2022/02/28 07:34:48;;;;;;;8.43;1.65;;;22.20;46.40;;;;;;4973539;28;20276;-44
2022/02/28 07:37:20;;;;;;;8.13;2.00;;;22.10;45.80;;;;;;4972836;28;20260;-56
2022/02/28 07:39:51;;;;;;;5.10;1.88;;;21.90;45.70;;;;;;4973445;28;20195;-54
2022/02/28 07:42:21;;;;;;;7.35;1.75;;;21.80;45.90;;;;;;4973990;28;20264;-55
2022/02/28 07:44:52;;;;;;;4.53;1.45;;;21.70;46.20;;;;;;4973903;28;20198;-56
2022/02/28 07:47:22;;;;;;;8.05;2.03;;;21.70;46.40;;;;;;4973465;28;20253;-56
2022/02/28 07:49:53;;;;;;;5.13;1.80;;;21.60;46.50;;;;;;4973421;28;20272;-56
2022/02/28 07:52:25;;;;;;;3.50;1.48;;;21.60;46.70;;;;;;4968041;28;20281;-56
2022/02/28 07:54:56;;;;;;;4.78;1.65;;;21.60;46.90;;;;;;4972138;28;20986;-56
2022/02/28 07:57:26;;;;;;;3.08;1.48;;;21.50;47.00;;;;;;4972042;28;20265;-56
2022/02/28 07:59:57;;;;;;;4.25;1.65;;;21.50;47.20;;;;;;4971544;28;20198;-56
2022/02/28 08:02:28;;;;;;;3.88;1.40;;;21.50;47.30;;;;;;4971757;28;20272;-56
2022/02/28 08:04:58;;;;;;;3.38;1.15;;;21.50;47.40;;;;;;4972245;28;20277;-54
2022/02/28 08:07:31;;;;;;;4.85;1.60;;;21.50;47.50;;;;;;4971382;28;20194;-56
2022/02/28 08:10:02;;;;;;;3.67;1.48;;;21.40;47.40;;;;;;4971899;28;20205;-56
2022/02/28 08:12:32;;;;;;;4.60;1.50;;;21.40;47.50;;;;;;4971396;28;20214;-55
2022/02/28 08:15:03;;;;;;;5.13;1.40;;;21.40;47.60;;;;;;4971157;28;20202;-55
2022/02/28 08:17:34;;;;;;;4.75;1.35;;;21.40;47.60;;;;;;4970894;28;20717;-56
2022/02/28 08:20:05;;;;;;;3.45;1.40;;;21.40;47.60;;;;;;4983337;23;20226;-55
2022/02/28 08:22:38;;;;;;;3.78;1.70;;;21.40;47.70;;;;;;4971253;28;20230;-57
2022/02/28 08:25:10;;;;;;;3.78;1.55;;;21.40;47.80;;;;;;4971973;28;20210;-55
2022/02/28 08:27:40;;;;;;;4.55;1.30;;;21.30;47.70;;;;;;4971267;28;20190;-51
2022/02/28 08:30:11;;;;;;;3.10;1.52;;;21.30;47.70;;;;;;4970852;28;20202;-54
2022/02/28 08:32:42;;;;;;;3.72;1.50;;;21.30;47.80;;;;;;4970891;28;20265;-55
2022/02/28 08:35:13;;;;;;;2.70;1.13;;;21.30;47.80;;;;;;4970505;28;20205;-54
2022/02/28 08:37:45;;;;;;;4.30;1.40;;;21.30;47.90;;;;;;4971269;28;20202;-52
2022/02/28 08:40:16;;;;;;;4.00;1.45;;;21.30;47.90;;;;;;4970796;28;20198;-50
2022/02/28 08:42:48;;;;;;;4.07;1.40;;;21.20;47.90;;;;;;4970963;28;20198;-49
2022/02/28 08:45:20;;;;;;;3.90;1.60;;;21.20;47.90;;;;;;4971404;28;20323;-57
2022/02/28 08:47:50;;;;;;;2.67;1.33;;;21.20;48.00;;;;;;4970960;28;20195;-57
2022/02/28 08:50:21;;;;;;;3.15;1.15;;;21.20;48.00;;;;;;4969015;28;20242;-55
2022/02/28 08:52:53;;;;;;;2.38;1.20;;;21.20;48.00;;;;;;4970955;28;20206;-58
2022/02/28 08:55:24;;;;;;;2.42;1.10;;;21.20;48.10;;;;;;4970056;28;20198;-57
2022/02/28 08:57:55;;;;;;;3.92;1.52;;;21.20;48.10;;;;;;4970569;28;20339;-56
2022/02/28 09:00:25;;;;;;;3.47;1.17;;;21.20;48.20;;;;;;4970841;28;20199;-54
2022/02/28 09:02:56;;;;;;;3.15;1.30;;;21.20;48.20;;;;;;4970573;28;20253;-57
2022/02/28 09:05:27;;;;;;;2.38;1.20;;;21.10;48.20;;;;;;4971140;28;20198;-48
2022/02/28 09:07:59;;;;;;;2.47;1.20;;;21.20;48.20;;;;;;4970564;28;20205;-51
2022/02/28 09:10:30;;;;;;;2.80;1.20;;;21.10;48.20;;;;;;4970866;28;20651;-54
2022/02/28 09:13:01;;;;;;;1.70;1.10;;;21.10;48.20;;;;;;4970535;28;20252;-54
2022/02/28 09:15:31;;;;;;;2.85;1.30;;;21.10;48.30;;;;;;4970520;28;20198;-57
2022/02/28 09:18:02;;;;;;;5.00;1.20;;;21.10;48.30;;;;;;4971140;28;20212;-50
2022/02/28 09:20:33;;;;;;;2.22;1.20;;;21.10;48.40;;;;;;5022111;23;20605;-56
2022/02/28 09:23:05;;;;;;;2.40;1.40;;;21.00;48.30;;;;;;4970885;28;20200;-56
2022/02/28 09:25:36;;;;;;;3.45;1.30;;;21.00;48.40;;;;;;4969772;28;20651;-54
2022/02/28 09:28:07;;;;;;;3.17;1.55;;;21.00;48.40;;;;;;4968588;28;20201;-54
2022/02/28 09:30:37;;;;;;;4.60;1.10;;;21.00;48.50;;;;;;4969885;28;20285;-54
2022/02/28 09:33:08;;;;;;;1.55;0.90;;;21.00;48.50;;;;;;4970469;28;20245;-56
2022/02/28 09:35:38;;;;;;;4.00;1.25;;;20.90;48.40;;;;;;4969112;28;20194;-56
2022/02/28 09:38:11;;;;;;;3.90;1.42;;;20.90;48.50;;;;;;4969092;28;20194;-61
2022/02/28 09:40:46;;;;;;;2.63;1.17;;;20.90;48.60;;;;;;4970060;28;20226;-56
2022/02/28 09:43:18;;;;;;;1.65;1.10;;;20.90;48.60;;;;;;4969740;28;20194;-53
2022/02/28 09:45:51;;;;;;;2.97;1.35;;;20.90;48.60;;;;;;4970506;28;20559;-55
2022/02/28 09:48:21;;;;;;;2.72;1.00;;;20.90;48.60;;;;;;4969727;28;20198;-56
2022/02/28 09:50:52;;;;;;;2.00;1.10;;;20.80;48.50;;;;;;4968725;28;20809;-56
2022/02/28 09:53:24;;;;;;;3.05;1.35;;;20.80;48.60;;;;;;4969509;28;20261;-56
2022/02/28 09:55:55;;;;;;;2.40;1.00;;;20.80;48.60;;;;;;4969914;28;20191;-53
2022/02/28 09:58:36;;;;;;;2.00;1.00;;;20.80;48.70;;;;;;4969660;28;20206;-56
2022/02/28 10:01:07;;;;;;;3.03;1.15;;;20.80;48.70;;;;;;4969077;28;20220;-54
2022/02/28 10:03:38;;;;;;;1.23;0.90;;;20.80;48.70;;;;;;4969706;28;20216;-55
2022/02/28 10:06:08;;;;;;;2.75;1.02;;;20.70;48.70;;;;;;4970509;28;20280;-56
2022/02/28 10:08:48;;;;;;;2.95;1.33;;;20.70;48.70;;;;;;4969489;28;20202;-56
2022/02/28 10:11:29;;;;;;;2.38;1.00;;;20.70;48.80;;;;;;4969575;28;20225;-54
2022/02/28 10:14:01;;;;;;;1.58;0.80;;;20.70;48.80;;;;;;4969646;28;20350;-56
2022/02/28 10:16:37;;;;;;;2.45;1.30;;;20.70;48.90;;;;;;4969464;28;20562;-56
2022/02/28 10:19:18;;;;;;;;;;;;;;;;;;;;;
2022/02/28 10:47:57;;;;;;;2.25;1.20;;;20.50;49.10;;;;;;4969227;28;20210;-55
2022/02/28 10:50:41;;;;;;;1.80;1.17;;;20.50;49.20;;;;;;4971448;28;20596;-57
2022/02/28 10:53:14;;;;;;;2.67;1.10;;;20.40;49.10;;;;;;4970332;28;20900;-54
2022/02/28 10:55:46;;;;;;;1.77;1.33;;;20.40;49.20;;;;;;4970975;28;20194;-56
2022/02/28 10:58:18;;;;;;;1.63;0.95;;;20.40;49.20;;;;;;4971118;28;20198;-55
2022/02/28 11:00:57;;;;;;;1.80;1.13;;;20.40;49.20;;;;;;4970811;28;20218;-56
2022/02/28 11:03:30;;;;;;;2.35;1.35;;;20.40;49.30;;;;;;4971121;28;20198;-57
2022/02/28 11:06:01;;;;;;;1.60;0.90;;;20.30;49.30;;;;;;4970940;28;20202;-54
2022/02/28 11:08:32;;;;;;;2.80;0.90;;;20.30;49.30;;;;;;4970152;28;20217;-56
2022/02/28 11:11:10;;;;;;;2.03;1.10;;;20.30;49.30;;;;;;4970629;28;20664;-55
2022/02/28 11:13:42;;;;;;;1.90;1.00;;;20.30;49.30;;;;;;4973776;28;20689;-54
2022/02/28 11:16:13;;;;;;;2.10;1.08;;;20.30;49.40;;;;;;4974410;28;20205;-56
2022/02/28 11:18:47;;;;;;;2.60;1.25;;;20.30;49.40;;;;;;4974390;28;20198;-56
2022/02/28 11:21:18;;;;;;;2.47;0.95;;;20.30;49.40;;;;;;4999840;23;20221;-49
2022/02/28 11:23:50;;;;;;;1.95;1.00;;;20.20;49.40;;;;;;4993190;28;20217;-54
2022/02/28 11:26:22;;;;;;;2.55;1.25;;;20.20;49.40;;;;;;4993688;28;20714;-56
2022/02/28 11:28:53;;;;;;;1.58;1.10;;;20.20;49.40;;;;;;4993744;28;20197;-56
2022/02/28 11:31:24;;;;;;;2.00;1.08;;;20.20;49.40;;;;;;4993610;28;20724;-57
2022/02/28 11:34:07;;;;;;;3.20;1.20;;;20.10;49.40;;;;;;4993402;28;20202;-55
2022/02/28 11:36:52;;;;;;;2.50;1.10;;;20.10;49.40;;;;;;4992908;28;20220;-57
2022/02/28 11:39:31;;;;;;;2.08;1.02;;;20.10;49.50;;;;;;4993233;28;20201;-56
2022/02/28 11:42:02;;;;;;;2.17;1.10;;;20.10;49.50;;;;;;4993216;28;20225;-54
2022/02/28 11:44:39;;;;;;;3.08;1.10;;;20.10;49.50;;;;;;4993162;28;20240;-55
2022/02/28 11:47:13;;;;;;;3.28;1.25;;;20.10;49.60;;;;;;4993245;28;20212;-55
2022/02/28 11:49:47;;;;;;;1.40;1.08;;;20.10;49.70;;;;;;4993201;28;20307;-57
2022/02/28 11:52:41;;;;;;;2.67;1.15;;;20.00;49.60;;;;;;4992084;28;20291;-56
2022/02/28 11:55:13;;;;;;;1.95;0.98;;;20.00;49.70;;;;;;4987588;28;20244;-56
2022/02/28 11:57:55;;;;;;;1.35;0.80;;;20.00;49.70;;;;;;4992994;28;20222;-56
2022/02/28 12:00:42;;;;;;;1.77;1.02;;;20.00;49.70;;;;;;4992951;28;20740;-52
2022/02/28 12:03:32;;;;;;;1.08;0.73;;;20.00;49.70;;;;;;4992986;28;20197;-56
2022/02/28 12:06:05;;;;;;;1.80;1.10;;;20.00;49.70;;;;;;4990168;28;20206;-57
2022/02/28 12:08:40;;;;;;;1.38;1.10;;;20.00;49.80;;;;;;4992174;28;20200;-56
2022/02/28 12:11:21;;;;;;;1.80;1.13;;;19.90;49.70;;;;;;4992670;28;20307;-56
2022/02/28 12:14:02;;;;;;;1.58;1.05;;;19.90;49.70;;;;;;4992667;28;20288;-51
2022/02/28 12:19:36;;;;;;;1.70;1.20;;;19.90;49.80;;;;;;5006929;23;20332;-51
2022/02/28 12:22:09;;;;;;;1.63;0.93;;;19.90;49.80;;;;;;4990976;28;20689;-56
2022/02/28 12:25:12;;;;;;;1.38;0.88;;;19.80;49.80;;;;;;4992480;28;20201;-55
2022/02/28 12:27:47;;;;;;;1.60;0.90;;;19.80;49.80;;;;;;4913369;29;20485;-56
2022/02/28 12:30:49;;;;;;;2.40;1.10;;;19.80;49.80;;;;;;4913147;29;20203;-53
2022/02/28 12:33:20;;;;;;;2.05;1.17;;;19.80;49.90;;;;;;4972766;28;20197;-56
2022/02/28 12:35:57;;;;;;;1.90;1.10;;;19.80;49.90;;;;;;4992056;28;20197;-53
2022/02/28 12:38:32;;;;;;;1.92;0.98;;;19.70;49.80;;;;;;4991661;28;20229;-54
2022/02/28 12:41:06;;;;;;;1.70;1.23;;;19.70;49.90;;;;;;4991920;28;20298;-54
2022/02/28 12:43:37;;;;;;;1.75;0.93;;;19.70;50.00;;;;;;4991698;28;20190;-55
2022/02/28 12:46:09;;;;;;;1.58;0.98;;;19.70;50.00;;;;;;4991869;28;20208;-55
2022/02/28 12:48:41;;;;;;;1.77;0.95;;;19.70;50.00;;;;;;4991666;28;20204;-54
2022/02/28 12:51:13;;;;;;;1.88;1.00;;;19.70;50.00;;;;;;4989864;28;20229;-49
2022/02/28 12:53:46;;;;;;;2.33;1.10;;;19.60;50.00;;;;;;4991108;28;20207;-57
2022/02/28 12:56:19;;;;;;;1.25;0.88;;;19.60;50.00;;;;;;4991677;28;20201;-56
2022/02/28 12:58:52;;;;;;;1.40;1.00;;;19.60;50.00;;;;;;4991916;28;20225;-57
2022/02/28 13:01:24;;;;;;;1.73;0.80;;;19.60;50.00;;;;;;4991362;28;20257;-57
2022/02/28 13:03:56;;;;;;;1.52;0.90;;;19.60;50.10;;;;;;4991267;28;20209;-53
2022/02/28 13:06:28;;;;;;;2.42;0.90;;;19.60;50.10;;;;;;4991499;28;20197;-54
2022/02/28 13:09:08;;;;;;;1.10;0.70;;;19.50;50.00;;;;;;4990744;28;20201;-55
2022/02/28 13:11:45;;;;;;;2.53;1.23;;;19.50;50.00;;;;;;4991254;28;20217;-53
2022/02/28 13:14:17;;;;;;;1.60;0.85;;;19.50;50.00;;;;;;4991533;28;20553;-51
2022/02/28 13:16:50;;;;;;;2.35;1.10;;;19.50;50.00;;;;;;4991475;28;20232;-55
2022/02/28 13:22:05;;;;;;;1.48;1.00;;;19.50;50.10;;;;;;4953466;28;20231;-55
2022/02/28 13:24:38;;;;;;;1.65;1.17;;;19.50;50.10;;;;;;4951583;28;20195;-58
2022/02/28 13:27:10;;;;;;;2.53;1.10;;;19.40;50.10;;;;;;4952815;28;20194;-57
2022/02/28 13:29:41;;;;;;;2.10;1.00;;;19.40;50.20;;;;;;4955271;28;20187;-57
2022/02/28 13:32:14;;;;;;;1.88;1.23;;;19.40;50.20;;;;;;4952601;28;20227;-57
2022/02/28 13:34:46;;;;;;;1.50;0.93;;;19.40;50.80;;;;;;4951915;28;20203;-57
2022/02/28 13:37:21;;;;;;;1.65;0.90;;;19.40;50.20;;;;;;4952530;28;20690;-58
2022/02/28 13:39:55;;;;;;;2.40;0.98;;;19.40;50.20;;;;;;4933357;29;20262;-57
2022/02/28 13:42:28;;;;;;;1.95;1.10;;;19.30;50.20;;;;;;4933175;29;20218;-57
2022/02/28 13:45:08;;;;;;;1.52;0.90;;;19.30;50.20;;;;;;4933172;29;20242;-57